Flight Track Log - Related Links

Times and Time Zones

All times are in EDT time to prevent confusion due to time zone crossing. See the KAP16 flight status page for this flight to view local times or setup timezone preferences in your user account.

Time Position Orientation Groundspeed Altitude Reporting Facility
EDT Latitude Longitude Course Direction KTS MPH feet Rate Location/Type
Wed 03:03:28 PM 38.7667 -90.3667 21° North 112 129 1,300  Level Gateway (St. Louis) TRACON
Wed 03:04:28 PM 38.8000 -90.3500 21° North 135 155 2,100 778 Climbing Gateway (St. Louis) TRACON
Wed 03:05:16 PM 38.8333 -90.3500 360° North 143 165 2,700 531 Climbing Gateway (St. Louis) TRACON
Wed 03:06:21 PM 38.8614 -90.3411 14° North 139 160 3,100 429 Climbing Kansas City Center
Wed 03:07:22 PM 38.9078 -90.3425 359° North 139 160 3,600 435 Climbing Kansas City Center
Wed 03:08:25 PM 38.9481 -90.3403 North 141 162 4,000 387 Climbing Kansas City Center
Wed 03:09:26 PM 38.9894 -90.3392 North 145 167 4,400 387 Climbing Kansas City Center
Wed 03:10:29 PM 39.0231 -90.3550 340° North 140 161 4,800 425 Climbing Kansas City Center
Wed 03:11:33 PM 39.0550 -90.3822 327° Northwest 137 158 5,300 435 Climbing Kansas City Center
Wed 03:12:33 PM 39.0856 -90.4106 324° Northwest 136 157 5,700 397 Climbing Kansas City Center
Wed 03:13:34 PM 39.1231 -90.4444 325° Northwest 137 158 6,100 192 Climbing Kansas City Center
Wed 03:14:38 PM 39.1578 -90.4767 324° Northwest 149 171 6,100  Level Kansas City Center
Wed 03:15:38 PM 39.1956 -90.5108 325° Northwest 161 185 6,100 -48 Level Kansas City Center
Wed 03:16:42 PM 39.2333 -90.5447 325° Northwest 164 189 6,000 -48 Descending Kansas City Center
Wed 03:17:42 PM 39.2683 -90.5772 324° Northwest 159 183 6,000  Level Kansas City Center
Wed 03:18:47 PM 39.3097 -90.6142 325° Northwest 152 175 6,000  Level Kansas City Center
Wed 03:19:48 PM 39.3436 -90.6458 324° Northwest 150 173 6,000  Level Kansas City Center
Wed 03:20:48 PM 39.3783 -90.6778 325° Northwest 153 176 6,000  Level Kansas City Center
Wed 03:21:52 PM 39.4133 -90.7081 326° Northwest 151 174 6,000  Level Kansas City Center
Wed 03:22:53 PM 39.4483 -90.7417 323° Northwest 155 178 6,000  Level Kansas City Center
Wed 03:23:57 PM 39.4833 -90.7747 324° Northwest 155 178 6,000  Level Kansas City Center
Wed 03:24:57 PM 39.5239 -90.8100 326° Northwest 148 170 6,000  Level Kansas City Center
Wed 03:26:02 PM 39.5592 -90.8422 325° Northwest 152 175 6,000  Level Kansas City Center
Wed 03:27:03 PM 39.5922 -90.8731 324° Northwest 148 170 6,000  Level Kansas City Center
Wed 03:28:03 PM 39.6269 -90.9042 325° Northwest 150 173 6,000 -97 Level Kansas City Center
Wed 03:29:07 PM 39.6617 -90.9367 324° Northwest 153 176 5,800 -339 Descending Kansas City Center
Wed 03:30:07 PM 39.6967 -90.9678 326° Northwest 153 176 5,300 -484 Descending Kansas City Center
Wed 03:31:11 PM 39.7381 -91.0069 324° Northwest 153 176 4,800 -484 Descending Kansas City Center
Wed 03:32:11 PM 39.7742 -91.0411 324° Northwest 152 175 4,300 -435 Descending Kansas City Center
Wed 03:33:15 PM 39.8089 -91.0722 325° Northwest 152 175 3,900 -581 Descending Kansas City Center
Wed 03:34:15 PM 39.8436 -91.1081 322° Northwest 150 173 3,100 -800 Descending Kansas City Center

Login

Don't have an account? Register now (free) for customized features, flight alerts, and more!